sensor_id;sensor_type;location;lat;lon;timestamp;pressure;altitude;pressure_sealevel;temperature;humidity
23303;BME280;11820;48.738;9.092;2023-06-24T00:00:56;97143.13;;;19.05;100.00
23303;BME280;11820;48.738;9.092;2023-06-24T00:03:22;97148.81;;;19.02;100.00
23303;BME280;11820;48.738;9.092;2023-06-24T00:05:52;97160.00;;;18.79;100.00
23303;BME280;11820;48.738;9.092;2023-06-24T00:08:19;97160.59;;;18.81;100.00
23303;BME280;11820;48.738;9.092;2023-06-24T00:10:46;97159.94;;;18.86;100.00
23303;BME280;11820;48.738;9.092;2023-06-24T00:13:12;97162.41;;;18.81;100.00
23303;BME280;11820;48.738;9.092;2023-06-24T00:15:38;97161.47;;;18.75;100.00
23303;BME280;11820;48.738;9.092;2023-06-24T00:18:08;97164.69;;;18.59;100.00
23303;BME280;11820;48.738;9.092;2023-06-24T00:20:33;97172.50;;;18.48;100.00
23303;BME280;11820;48.738;9.092;2023-06-24T00:22:59;97162.19;;;18.35;100.00
23303;BME280;11820;48.738;9.092;2023-06-24T00:25:24;97163.63;;;18.13;100.00
23303;BME280;11820;48.738;9.092;2023-06-24T00:27:49;97165.78;;;18.16;100.00
23303;BME280;11820;48.738;9.092;2023-06-24T00:30:15;97172.50;;;18.12;100.00
23303;BME280;11820;48.738;9.092;2023-06-24T00:32:40;97172.28;;;17.96;100.00
23303;BME280;11820;48.738;9.092;2023-06-24T00:35:06;97168.66;;;18.32;100.00
23303;BME280;11820;48.738;9.092;2023-06-24T00:37:31;97160.59;;;18.34;100.00
23303;BME280;11820;48.738;9.092;2023-06-24T00:39:56;97162.88;;;18.24;100.00
23303;BME280;11820;48.738;9.092;2023-06-24T00:42:22;97160.28;;;18.06;100.00
23303;BME280;11820;48.738;9.092;2023-06-24T00:44:48;97156.84;;;18.05;100.00
23303;BME280;11820;48.738;9.092;2023-06-24T00:47:13;97161.66;;;18.08;100.00
23303;BME280;11820;48.738;9.092;2023-06-24T00:49:39;97162.31;;;18.22;100.00
23303;BME280;11820;48.738;9.092;2023-06-24T00:52:04;97163.16;;;18.40;100.00
23303;BME280;11820;48.738;9.092;2023-06-24T00:54:30;97160.91;;;18.73;100.00
23303;BME280;11820;48.738;9.092;2023-06-24T00:56:58;97153.78;;;18.62;100.00
23303;BME280;11820;48.738;9.092;2023-06-24T00:59:26;97149.66;;;18.55;100.00
23303;BME280;11820;48.738;9.092;2023-06-24T01:01:54;97147.03;;;18.55;100.00
23303;BME280;11820;48.738;9.092;2023-06-24T01:04:20;97148.91;;;18.66;100.00
23303;BME280;11820;48.738;9.092;2023-06-24T01:06:45;97148.78;;;18.61;100.00
23303;BME280;11820;48.738;9.092;2023-06-24T01:09:12;97161.06;;;18.24;100.00
23303;BME280;11820;48.738;9.092;2023-06-24T01:11:38;97155.13;;;18.17;100.00
23303;BME280;11820;48.738;9.092;2023-06-24T01:14:04;97154.66;;;18.27;100.00
23303;BME280;11820;48.738;9.092;2023-06-24T01:32:56;97158.16;;;17.97;100.00
23303;BME280;11820;48.738;9.092;2023-06-24T01:35:28;97158.81;;;17.92;100.00
23303;BME280;11820;48.738;9.092;2023-06-24T01:37:59;97158.16;;;17.97;100.00
23303;BME280;11820;48.738;9.092;2023-06-24T01:40:45;97155.41;;;17.92;100.00
23303;BME280;11820;48.738;9.092;2023-06-24T01:43:12;97150.38;;;18.08;100.00
23303;BME280;11820;48.738;9.092;2023-06-24T01:46:04;97152.50;;;17.99;100.00
23303;BME280;11820;48.738;9.092;2023-06-24T01:48:35;97149.34;;;17.91;100.00
23303;BME280;11820;48.738;9.092;2023-06-24T01:51:07;97151.56;;;18.12;100.00
23303;BME280;11820;48.738;9.092;2023-06-24T01:53:36;97152.13;;;17.96;100.00
23303;BME280;11820;48.738;9.092;2023-06-24T01:56:06;97147.91;;;18.13;100.00
23303;BME280;11820;48.738;9.092;2023-06-24T01:58:32;97152.19;;;18.25;100.00
23303;BME280;11820;48.738;9.092;2023-06-24T02:01:01;97144.88;;;18.34;100.00
23303;BME280;11820;48.738;9.092;2023-06-24T02:03:28;97141.66;;;18.14;100.00
23303;BME280;11820;48.738;9.092;2023-06-24T02:05:54;97137.88;;;18.10;100.00
23303;BME280;11820;48.738;9.092;2023-06-24T02:08:21;97150.06;;;17.98;100.00
23303;BME280;11820;48.738;9.092;2023-06-24T02:10:48;97150.59;;;17.89;100.00
23303;BME280;11820;48.738;9.092;2023-06-24T02:13:16;97152.56;;;17.93;100.00
23303;BME280;11820;48.738;9.092;2023-06-24T02:15:42;97148.41;;;17.86;100.00
23303;BME280;11820;48.738;9.092;2023-06-24T02:18:09;97149.19;;;17.68;100.00
23303;BME280;11820;48.738;9.092;2023-06-24T02:20:36;97144.50;;;17.52;100.00
23303;BME280;11820;48.738;9.092;2023-06-24T02:23:06;97143.22;;;17.61;100.00
23303;BME280;11820;48.738;9.092;2023-06-24T02:25:33;97142.41;;;17.61;100.00
23303;BME280;11820;48.738;9.092;2023-06-24T02:27:59;97139.28;;;17.52;100.00
23303;BME280;11820;48.738;9.092;2023-06-24T02:30:24;97128.53;;;17.60;100.00
23303;BME280;11820;48.738;9.092;2023-06-24T02:32:51;97126.19;;;17.52;100.00
23303;BME280;11820;48.738;9.092;2023-06-24T02:35:16;97131.81;;;17.25;100.00
23303;BME280;11820;48.738;9.092;2023-06-24T02:37:42;97137.00;;;17.38;100.00
23303;BME280;11820;48.738;9.092;2023-06-24T02:40:08;97129.78;;;17.33;100.00
23303;BME280;11820;48.738;9.092;2023-06-24T02:42:35;97129.72;;;17.40;100.00
23303;BME280;11820;48.738;9.092;2023-06-24T02:45:01;97124.56;;;17.27;100.00
23303;BME280;11820;48.738;9.092;2023-06-24T02:47:27;97128.75;;;17.34;100.00
23303;BME280;11820;48.738;9.092;2023-06-24T02:49:53;97129.56;;;17.35;100.00
23303;BME280;11820;48.738;9.092;2023-06-24T02:52:19;97131.03;;;17.24;100.00
23303;BME280;11820;48.738;9.092;2023-06-24T02:54:45;97137.44;;;17.28;100.00
23303;BME280;11820;48.738;9.092;2023-06-24T02:57:11;97134.00;;;17.34;100.00
23303;BME280;11820;48.738;9.092;2023-06-24T02:59:40;97132.50;;;17.45;100.00
23303;BME280;11820;48.738;9.092;2023-06-24T03:02:06;97132.78;;;17.30;100.00
23303;BME280;11820;48.738;9.092;2023-06-24T03:04:32;97133.91;;;17.16;100.00
23303;BME280;11820;48.738;9.092;2023-06-24T03:06:57;97132.72;;;17.12;100.00
23303;BME280;11820;48.738;9.092;2023-06-24T03:09:26;97138.97;;;17.11;100.00
23303;BME280;11820;48.738;9.092;2023-06-24T03:11:51;97137.22;;;17.05;100.00
23303;BME280;11820;48.738;9.092;2023-06-24T03:14:17;97141.53;;;17.18;100.00
23303;BME280;11820;48.738;9.092;2023-06-24T03:16:42;97143.91;;;16.95;100.00
23303;BME280;11820;48.738;9.092;2023-06-24T03:19:07;97140.41;;;17.07;100.00
23303;BME280;11820;48.738;9.092;2023-06-24T03:21:33;97143.19;;;17.12;100.00
23303;BME280;11820;48.738;9.092;2023-06-24T03:23:58;97152.53;;;16.95;100.00
23303;BME280;11820;48.738;9.092;2023-06-24T03:26:31;97149.69;;;17.03;100.00
23303;BME280;11820;48.738;9.092;2023-06-24T03:28:57;97147.22;;;17.08;100.00
23303;BME280;11820;48.738;9.092;2023-06-24T03:31:22;97146.88;;;17.29;100.00
23303;BME280;11820;48.738;9.092;2023-06-24T03:33:48;97151.94;;;17.24;100.00
23303;BME280;11820;48.738;9.092;2023-06-24T03:36:14;97155.72;;;17.59;100.00
23303;BME280;11820;48.738;9.092;2023-06-24T03:38:39;97155.16;;;17.75;100.00
23303;BME280;11820;48.738;9.092;2023-06-24T03:41:04;97163.66;;;17.46;100.00
23303;BME280;11820;48.738;9.092;2023-06-24T03:43:29;97161.38;;;17.56;100.00
23303;BME280;11820;48.738;9.092;2023-06-24T03:45:56;97169.06;;;17.51;100.00
23303;BME280;11820;48.738;9.092;2023-06-24T03:48:22;97174.63;;;17.37;100.00
23303;BME280;11820;48.738;9.092;2023-06-24T03:50:47;97184.56;;;17.15;100.00
23303;BME280;11820;48.738;9.092;2023-06-24T03:53:12;97186.69;;;17.00;100.00
23303;BME280;11820;48.738;9.092;2023-06-24T03:55:38;97183.44;;;17.05;100.00
23303;BME280;11820;48.738;9.092;2023-06-24T03:58:03;97184.63;;;17.09;100.00
23303;BME280;11820;48.738;9.092;2023-06-24T04:00:28;97180.00;;;17.11;100.00
23303;BME280;11820;48.738;9.092;2023-06-24T04:02:54;97184.41;;;17.10;100.00
23303;BME280;11820;48.738;9.092;2023-06-24T04:05:20;97182.72;;;17.22;100.00
23303;BME280;11820;48.738;9.092;2023-06-24T04:07:46;97189.50;;;17.30;100.00
23303;BME280;11820;48.738;9.092;2023-06-24T04:10:12;97193.94;;;17.60;100.00
23303;BME280;11820;48.738;9.092;2023-06-24T04:12:38;97187.59;;;17.74;100.00
23303;BME280;11820;48.738;9.092;2023-06-24T04:15:04;97189.00;;;17.95;100.00
23303;BME280;11820;48.738;9.092;2023-06-24T04:17:30;97199.03;;;17.98;100.00
23303;BME280;11820;48.738;9.092;2023-06-24T04:19:55;97191.69;;;18.06;100.00
23303;BME280;11820;48.738;9.092;2023-06-24T04:22:21;97195.28;;;18.29;100.00
23303;BME280;11820;48.738;9.092;2023-06-24T04:24:46;97196.53;;;18.27;100.00
23303;BME280;11820;48.738;9.092;2023-06-24T04:27:11;97201.44;;;18.17;100.00
23303;BME280;11820;48.738;9.092;2023-06-24T04:29:37;97201.59;;;18.22;100.00
23303;BME280;11820;48.738;9.092;2023-06-24T04:32:02;97200.84;;;18.39;100.00
23303;BME280;11820;48.738;9.092;2023-06-24T04:34:27;97202.44;;;18.40;100.00
23303;BME280;11820;48.738;9.092;2023-06-24T04:36:53;97203.16;;;18.47;100.00
23303;BME280;11820;48.738;9.092;2023-06-24T04:39:18;97200.81;;;18.57;100.00
23303;BME280;11820;48.738;9.092;2023-06-24T04:41:44;97203.22;;;18.59;100.00
23303;BME280;11820;48.738;9.092;2023-06-24T04:44:09;97204.59;;;18.61;100.00
23303;BME280;11820;48.738;9.092;2023-06-24T04:46:34;97204.31;;;18.69;100.00
23303;BME280;11820;48.738;9.092;2023-06-24T04:49:00;97206.28;;;18.56;100.00
23303;BME280;11820;48.738;9.092;2023-06-24T04:51:25;97211.66;;;18.43;100.00
23303;BME280;11820;48.738;9.092;2023-06-24T04:53:50;97208.91;;;18.56;100.00
23303;BME280;11820;48.738;9.092;2023-06-24T04:56:16;97206.78;;;18.46;100.00
23303;BME280;11820;48.738;9.092;2023-06-24T04:58:41;97210.50;;;18.57;100.00
23303;BME280;11820;48.738;9.092;2023-06-24T05:01:06;97211.22;;;18.64;100.00
23303;BME280;11820;48.738;9.092;2023-06-24T05:03:32;97202.56;;;18.63;100.00
23303;BME280;11820;48.738;9.092;2023-06-24T05:05:57;97210.06;;;18.78;100.00
23303;BME280;11820;48.738;9.092;2023-06-24T05:08:22;97201.56;;;18.94;100.00
23303;BME280;11820;48.738;9.092;2023-06-24T05:10:48;97205.84;;;18.88;100.00
23303;BME280;11820;48.738;9.092;2023-06-24T05:13:13;97210.44;;;18.63;100.00
23303;BME280;11820;48.738;9.092;2023-06-24T05:15:38;97210.91;;;18.72;100.00
23303;BME280;11820;48.738;9.092;2023-06-24T05:18:04;97213.38;;;18.85;100.00
23303;BME280;11820;48.738;9.092;2023-06-24T05:20:29;97219.97;;;18.87;100.00
23303;BME280;11820;48.738;9.092;2023-06-24T05:22:55;97220.34;;;18.91;100.00
23303;BME280;11820;48.738;9.092;2023-06-24T05:25:20;97225.38;;;18.92;100.00
23303;BME280;11820;48.738;9.092;2023-06-24T05:27:45;97213.19;;;18.98;100.00
23303;BME280;11820;48.738;9.092;2023-06-24T05:30:11;97215.81;;;18.98;100.00
23303;BME280;11820;48.738;9.092;2023-06-24T05:32:38;97212.16;;;18.99;100.00
23303;BME280;11820;48.738;9.092;2023-06-24T05:35:04;97219.00;;;19.00;100.00
23303;BME280;11820;48.738;9.092;2023-06-24T05:37:29;97217.69;;;19.09;100.00
23303;BME280;11820;48.738;9.092;2023-06-24T05:39:54;97220.31;;;19.09;100.00
23303;BME280;11820;48.738;9.092;2023-06-24T05:42:22;97224.09;;;19.13;100.00
23303;BME280;11820;48.738;9.092;2023-06-24T05:44:48;97220.88;;;19.29;100.00
23303;BME280;11820;48.738;9.092;2023-06-24T05:47:14;97219.13;;;19.23;100.00
23303;BME280;11820;48.738;9.092;2023-06-24T05:49:39;97222.31;;;19.25;100.00
23303;BME280;11820;48.738;9.092;2023-06-24T05:52:05;97223.50;;;19.29;100.00
23303;BME280;11820;48.738;9.092;2023-06-24T05:54:30;97218.22;;;19.17;100.00
23303;BME280;11820;48.738;9.092;2023-06-24T05:56:55;97222.38;;;19.07;100.00
23303;BME280;11820;48.738;9.092;2023-06-24T05:59:21;97215.03;;;19.27;100.00
23303;BME280;11820;48.738;9.092;2023-06-24T06:01:46;97212.09;;;19.35;100.00
23303;BME280;11820;48.738;9.092;2023-06-24T06:04:11;97212.13;;;19.46;100.00
23303;BME280;11820;48.738;9.092;2023-06-24T06:06:37;97222.19;;;19.61;100.00
23303;BME280;11820;48.738;9.092;2023-06-24T06:09:02;97221.16;;;19.62;100.00
23303;BME280;11820;48.738;9.092;2023-06-24T06:11:28;97224.47;;;19.68;100.00
23303;BME280;11820;48.738;9.092;2023-06-24T06:13:53;97219.34;;;19.73;100.00
23303;BME280;11820;48.738;9.092;2023-06-24T06:16:18;97226.19;;;19.74;100.00
23303;BME280;11820;48.738;9.092;2023-06-24T06:18:43;97219.03;;;19.81;100.00
23303;BME280;11820;48.738;9.092;2023-06-24T06:21:09;97215.94;;;19.84;100.00
23303;BME280;11820;48.738;9.092;2023-06-24T06:23:34;97214.66;;;19.87;100.00
23303;BME280;11820;48.738;9.092;2023-06-24T06:25:59;97218.13;;;19.87;100.00
23303;BME280;11820;48.738;9.092;2023-06-24T06:28:25;97212.19;;;19.80;100.00
23303;BME280;11820;48.738;9.092;2023-06-24T06:30:50;97214.56;;;19.93;100.00
23303;BME280;11820;48.738;9.092;2023-06-24T06:33:16;97214.81;;;19.92;100.00
23303;BME280;11820;48.738;9.092;2023-06-24T06:35:41;97215.72;;;19.97;100.00
23303;BME280;11820;48.738;9.092;2023-06-24T06:38:06;97217.88;;;20.00;100.00
23303;BME280;11820;48.738;9.092;2023-06-24T06:40:31;97224.63;;;19.96;100.00
23303;BME280;11820;48.738;9.092;2023-06-24T06:42:57;97212.19;;;20.03;100.00
23303;BME280;11820;48.738;9.092;2023-06-24T06:45:22;97210.38;;;20.15;100.00
23303;BME280;11820;48.738;9.092;2023-06-24T06:47:49;97213.69;;;20.11;100.00
23303;BME280;11820;48.738;9.092;2023-06-24T06:50:15;97214.81;;;20.03;100.00
23303;BME280;11820;48.738;9.092;2023-06-24T06:52:40;97211.06;;;20.11;100.00
23303;BME280;11820;48.738;9.092;2023-06-24T06:55:05;97213.22;;;20.14;100.00
23303;BME280;11820;48.738;9.092;2023-06-24T06:57:31;97209.34;;;20.28;100.00
23303;BME280;11820;48.738;9.092;2023-06-24T06:59:57;97208.19;;;20.24;100.00
23303;BME280;11820;48.738;9.092;2023-06-24T07:02:22;97209.69;;;20.31;100.00
23303;BME280;11820;48.738;9.092;2023-06-24T07:04:47;97206.03;;;20.32;100.00
23303;BME280;11820;48.738;9.092;2023-06-24T07:07:13;97200.97;;;20.42;100.00
23303;BME280;11820;48.738;9.092;2023-06-24T07:09:38;97210.81;;;20.47;100.00
23303;BME280;11820;48.738;9.092;2023-06-24T07:12:06;97206.66;;;20.51;100.00
23303;BME280;11820;48.738;9.092;2023-06-24T07:14:31;97203.56;;;20.54;100.00
23303;BME280;11820;48.738;9.092;2023-06-24T07:16:56;97203.34;;;20.55;100.00
23303;BME280;11820;48.738;9.092;2023-06-24T07:19:22;97209.50;;;20.61;100.00
23303;BME280;11820;48.738;9.092;2023-06-24T07:21:47;97209.06;;;20.52;100.00
23303;BME280;11820;48.738;9.092;2023-06-24T07:24:12;97207.81;;;20.55;100.00
23303;BME280;11820;48.738;9.092;2023-06-24T07:26:38;97209.50;;;20.61;100.00
23303;BME280;11820;48.738;9.092;2023-06-24T07:29:06;97212.47;;;20.64;100.00
23303;BME280;11820;48.738;9.092;2023-06-24T07:31:32;97208.81;;;20.65;100.00
23303;BME280;11820;48.738;9.092;2023-06-24T07:33:57;97209.13;;;20.80;100.00
23303;BME280;11820;48.738;9.092;2023-06-24T07:36:22;97205.00;;;20.84;100.00
23303;BME280;11820;48.738;9.092;2023-06-24T07:38:48;97204.06;;;20.90;100.00
23303;BME280;11820;48.738;9.092;2023-06-24T07:41:13;97201.44;;;20.90;100.00
23303;BME280;11820;48.738;9.092;2023-06-24T07:43:39;97204.63;;;20.92;100.00
23303;BME280;11820;48.738;9.092;2023-06-24T07:46:04;97205.06;;;21.01;100.00
23303;BME280;11820;48.738;9.092;2023-06-24T07:48:29;97207.22;;;21.04;100.00
23303;BME280;11820;48.738;9.092;2023-06-24T07:50:55;97210.63;;;21.04;100.00
23303;BME280;11820;48.738;9.092;2023-06-24T07:53:20;97210.84;;;21.14;100.00
23303;BME280;11820;48.738;9.092;2023-06-24T07:55:45;97203.34;;;21.23;100.00
23303;BME280;11820;48.738;9.092;2023-06-24T07:58:11;97200.94;;;21.21;100.00
23303;BME280;11820;48.738;9.092;2023-06-24T08:00:36;97200.66;;;21.34;100.00
23303;BME280;11820;48.738;9.092;2023-06-24T08:03:01;97201.59;;;21.28;100.00
23303;BME280;11820;48.738;9.092;2023-06-24T08:05:27;97209.13;;;21.36;100.00
23303;BME280;11820;48.738;9.092;2023-06-24T08:07:53;97194.59;;;21.50;100.00
23303;BME280;11820;48.738;9.092;2023-06-24T08:10:18;97197.31;;;21.55;100.00
23303;BME280;11820;48.738;9.092;2023-06-24T08:12:44;97203.78;;;21.47;100.00
23303;BME280;11820;48.738;9.092;2023-06-24T08:15:09;97202.91;;;21.42;100.00
23303;BME280;11820;48.738;9.092;2023-06-24T08:17:34;97192.78;;;21.50;100.00
23303;BME280;11820;48.738;9.092;2023-06-24T08:20:01;97196.84;;;21.58;100.00
23303;BME280;11820;48.738;9.092;2023-06-24T08:22:27;97193.53;;;21.62;100.00
23303;BME280;11820;48.738;9.092;2023-06-24T08:24:52;97194.59;;;21.50;100.00
23303;BME280;11820;48.738;9.092;2023-06-24T08:27:18;97191.59;;;21.58;100.00
23303;BME280;11820;48.738;9.092;2023-06-24T08:30:02;97195.25;;;21.57;100.00
23303;BME280;11820;48.738;9.092;2023-06-24T08:36:01;97186.56;;;21.73;100.00
23303;BME280;11820;48.738;9.092;2023-06-24T08:38:27;97180.28;;;21.74;100.00
23303;BME280;11820;48.738;9.092;2023-06-24T08:40:52;97195.59;;;21.77;100.00
23303;BME280;11820;48.738;9.092;2023-06-24T08:43:17;97192.47;;;21.80;100.00
23303;BME280;11820;48.738;9.092;2023-06-24T08:45:43;97189.94;;;21.85;100.00
23303;BME280;11820;48.738;9.092;2023-06-24T08:48:39;97183.16;;;21.72;98.62
23303;BME280;11820;48.738;9.092;2023-06-24T08:51:08;97194.88;;;21.81;98.48
23303;BME280;11820;48.738;9.092;2023-06-24T08:53:34;97188.34;;;21.84;96.18
23303;BME280;11820;48.738;9.092;2023-06-24T08:56:01;97191.59;;;21.91;95.63
23303;BME280;11820;48.738;9.092;2023-06-24T08:58:26;97176.41;;;21.98;93.70
23303;BME280;11820;48.738;9.092;2023-06-24T09:00:52;97187.91;;;22.30;92.05
23303;BME280;11820;48.738;9.092;2023-06-24T09:03:18;97184.19;;;22.26;90.31
23303;BME280;11820;48.738;9.092;2023-06-24T09:05:43;97181.66;;;22.14;90.33
23303;BME280;11820;48.738;9.092;2023-06-24T09:08:09;97184.78;;;22.33;90.74
23303;BME280;11820;48.738;9.092;2023-06-24T09:10:36;97181.91;;;22.34;91.28
23303;BME280;11820;48.738;9.092;2023-06-24T09:13:06;97183.19;;;22.48;92.29
23303;BME280;11820;48.738;9.092;2023-06-24T09:15:36;97175.31;;;22.75;91.23
23303;BME280;11820;48.738;9.092;2023-06-24T09:18:02;97181.16;;;22.77;90.81
23303;BME280;11820;48.738;9.092;2023-06-24T09:20:30;97167.47;;;22.80;91.14
23303;BME280;11820;48.738;9.092;2023-06-24T09:22:59;97172.03;;;22.63;88.34
23303;BME280;11820;48.738;9.092;2023-06-24T09:25:25;97166.53;;;22.69;89.41
23303;BME280;11820;48.738;9.092;2023-06-24T09:27:50;97163.63;;;22.66;87.96
23303;BME280;11820;48.738;9.092;2023-06-24T09:30:22;97154.53;;;22.78;87.51
23303;BME280;11820;48.738;9.092;2023-06-24T09:32:48;97147.06;;;22.97;88.10
23303;BME280;11820;48.738;9.092;2023-06-24T09:35:16;97153.38;;;22.96;86.36
23303;BME280;11820;48.738;9.092;2023-06-24T09:37:42;97153.47;;;23.06;85.89
23303;BME280;11820;48.738;9.092;2023-06-24T09:40:08;97151.56;;;23.22;84.62
23303;BME280;11820;48.738;9.092;2023-06-24T09:42:35;97143.91;;;23.00;83.55
23303;BME280;11820;48.738;9.092;2023-06-24T09:45:05;97143.66;;;23.22;83.29
23303;BME280;11820;48.738;9.092;2023-06-24T09:47:30;97139.19;;;23.23;81.97
23303;BME280;11820;48.738;9.092;2023-06-24T09:49:56;97137.31;;;23.23;83.14
23303;BME280;11820;48.738;9.092;2023-06-24T09:52:21;97138.19;;;23.34;81.43
23303;BME280;11820;48.738;9.092;2023-06-24T09:54:50;97141.53;;;23.56;83.08
23303;BME280;11820;48.738;9.092;2023-06-24T09:57:18;97134.53;;;23.40;82.16
23303;BME280;11820;48.738;9.092;2023-06-24T09:59:46;97130.66;;;23.47;81.27
23303;BME280;11820;48.738;9.092;2023-06-24T10:02:14;97129.22;;;23.66;81.89
23303;BME280;11820;48.738;9.092;2023-06-24T10:04:40;97129.72;;;23.63;77.72
23303;BME280;11820;48.738;9.092;2023-06-24T10:07:06;97131.72;;;23.51;78.23
23303;BME280;11820;48.738;9.092;2023-06-24T10:09:32;97123.94;;;23.71;78.34
23303;BME280;11820;48.738;9.092;2023-06-24T10:11:57;97121.63;;;23.80;77.60
23303;BME280;11820;48.738;9.092;2023-06-24T10:14:23;97116.13;;;23.86;76.04
23303;BME280;11820;48.738;9.092;2023-06-24T10:16:48;97115.00;;;23.77;75.77
23303;BME280;11820;48.738;9.092;2023-06-24T10:19:19;97113.00;;;23.89;75.79
23303;BME280;11820;48.738;9.092;2023-06-24T10:21:53;97121.13;;;24.29;76.80
23303;BME280;11820;48.738;9.092;2023-06-24T10:24:29;97115.06;;;24.39;73.64
23303;BME280;11820;48.738;9.092;2023-06-24T10:26:55;97114.53;;;24.32;73.48
23303;BME280;11820;48.738;9.092;2023-06-24T10:29:35;97109.34;;;24.00;71.57
23303;BME280;11820;48.738;9.092;2023-06-24T10:32:08;97105.25;;;24.24;72.13
23303;BME280;11820;48.738;9.092;2023-06-24T10:34:34;97103.13;;;24.21;71.68
23303;BME280;11820;48.738;9.092;2023-06-24T10:37:04;97098.91;;;24.25;73.01
23303;BME280;11820;48.738;9.092;2023-06-24T10:39:40;97087.78;;;24.23;72.71
23303;BME280;11820;48.738;9.092;2023-06-24T10:47:33;97088.25;;;24.82;69.12
23303;BME280;11820;48.738;9.092;2023-06-24T10:49:59;97083.94;;;24.51;67.90
23303;BME280;11820;48.738;9.092;2023-06-24T10:52:24;97082.13;;;24.66;66.13
23303;BME280;11820;48.738;9.092;2023-06-24T10:54:50;97084.53;;;24.78;65.21
23303;BME280;11820;48.738;9.092;2023-06-24T10:57:24;97077.38;;;24.78;64.93
23303;BME280;11820;48.738;9.092;2023-06-24T10:59:51;97077.66;;;24.87;62.84
23303;BME280;11820;48.738;9.092;2023-06-24T11:02:18;97072.66;;;25.15;63.22
23303;BME280;11820;48.738;9.092;2023-06-24T11:04:54;97071.91;;;25.29;62.38
23303;BME280;11820;48.738;9.092;2023-06-24T11:07:24;97074.22;;;25.06;61.00
23303;BME280;11820;48.738;9.092;2023-06-24T11:09:53;97069.75;;;25.41;61.33
23303;BME280;11820;48.738;9.092;2023-06-24T11:12:23;97066.28;;;25.56;59.95
23303;BME280;11820;48.738;9.092;2023-06-24T11:14:48;97067.84;;;25.62;61.23
23303;BME280;11820;48.738;9.092;2023-06-24T11:17:14;97066.31;;;25.36;62.25
23303;BME280;11820;48.738;9.092;2023-06-24T11:19:39;97063.13;;;25.49;61.63
23303;BME280;11820;48.738;9.092;2023-06-24T11:22:07;97059.41;;;25.35;60.42
23303;BME280;11820;48.738;9.092;2023-06-24T11:24:33;97052.00;;;25.27;61.49
23303;BME280;11820;48.738;9.092;2023-06-24T11:26:59;97047.72;;;25.61;60.86
23303;BME280;11820;48.738;9.092;2023-06-24T11:29:25;97044.00;;;25.62;60.69
23303;BME280;11820;48.738;9.092;2023-06-24T11:31:53;97048.81;;;25.45;59.79
23303;BME280;11820;48.738;9.092;2023-06-24T11:34:18;97045.38;;;25.39;59.29
23303;BME280;11820;48.738;9.092;2023-06-24T11:36:44;97046.44;;;25.38;60.14
23303;BME280;11820;48.738;9.092;2023-06-24T11:39:20;97038.47;;;25.58;58.79
23303;BME280;11820;48.738;9.092;2023-06-24T11:41:46;97038.44;;;25.63;60.04
23303;BME280;11820;48.738;9.092;2023-06-24T11:44:11;97023.88;;;25.66;59.43
23303;BME280;11820;48.738;9.092;2023-06-24T11:46:37;97035.16;;;26.06;60.46
23303;BME280;11820;48.738;9.092;2023-06-24T11:49:09;97032.47;;;26.11;58.39
23303;BME280;11820;48.738;9.092;2023-06-24T11:51:35;97019.75;;;26.13;58.35
23303;BME280;11820;48.738;9.092;2023-06-24T11:54:04;97020.00;;;26.17;58.03
23303;BME280;11820;48.738;9.092;2023-06-24T11:56:40;97022.19;;;26.00;59.17
23303;BME280;11820;48.738;9.092;2023-06-24T12:01:45;97014.00;;;26.45;58.86
23303;BME280;11820;48.738;9.092;2023-06-24T12:04:12;97011.75;;;26.66;58.22
23303;BME280;11820;48.738;9.092;2023-06-24T12:06:38;97013.19;;;26.44;58.46
23303;BME280;11820;48.738;9.092;2023-06-24T12:09:04;97006.56;;;26.42;58.63
23303;BME280;11820;48.738;9.092;2023-06-24T12:11:29;97005.03;;;26.36;56.72
23303;BME280;11820;48.738;9.092;2023-06-24T12:13:54;97009.50;;;25.87;55.02
23303;BME280;11820;48.738;9.092;2023-06-24T12:16:20;96992.66;;;25.48;55.04
23303;BME280;11820;48.738;9.092;2023-06-24T12:18:45;96988.81;;;25.89;55.54
23303;BME280;11820;48.738;9.092;2023-06-24T12:21:10;96986.94;;;25.94;55.81
23303;BME280;11820;48.738;9.092;2023-06-24T12:23:36;96976.84;;;26.45;56.47
23303;BME280;11820;48.738;9.092;2023-06-24T12:26:01;96971.03;;;26.43;55.76
23303;BME280;11820;48.738;9.092;2023-06-24T12:28:27;96971.88;;;26.28;57.78
23303;BME280;11820;48.738;9.092;2023-06-24T12:30:52;96968.88;;;26.45;55.58
23303;BME280;11820;48.738;9.092;2023-06-24T12:33:17;96971.44;;;26.60;54.57
23303;BME280;11820;48.738;9.092;2023-06-24T12:35:44;96974.34;;;26.20;54.65
23303;BME280;11820;48.738;9.092;2023-06-24T12:38:10;96980.88;;;25.79;54.49
23303;BME280;11820;48.738;9.092;2023-06-24T12:40:36;96969.78;;;26.25;54.40
23303;BME280;11820;48.738;9.092;2023-06-24T12:43:01;96967.22;;;26.59;53.93
23303;BME280;11820;48.738;9.092;2023-06-24T12:45:27;96965.16;;;26.46;54.02
23303;BME280;11820;48.738;9.092;2023-06-24T12:47:52;96959.16;;;26.73;53.59
23303;BME280;11820;48.738;9.092;2023-06-24T12:50:18;96958.28;;;26.83;53.84
23303;BME280;11820;48.738;9.092;2023-06-24T12:52:43;96963.16;;;27.28;53.69
23303;BME280;11820;48.738;9.092;2023-06-24T12:55:08;96951.63;;;27.14;53.43
23303;BME280;11820;48.738;9.092;2023-06-24T12:57:34;96946.66;;;27.02;53.50
23303;BME280;11820;48.738;9.092;2023-06-24T13:00:00;96945.53;;;27.13;53.05
23303;BME280;11820;48.738;9.092;2023-06-24T13:02:25;96948.19;;;27.13;52.57
23303;BME280;11820;48.738;9.092;2023-06-24T13:04:51;96946.00;;;27.20;51.91
23303;BME280;11820;48.738;9.092;2023-06-24T13:07:16;96938.69;;;27.31;52.39
23303;BME280;11820;48.738;9.092;2023-06-24T13:09:41;96933.09;;;27.32;51.07
23303;BME280;11820;48.738;9.092;2023-06-24T13:12:07;96930.16;;;27.57;51.84
23303;BME280;11820;48.738;9.092;2023-06-24T13:14:34;96928.56;;;27.80;51.58
23303;BME280;11820;48.738;9.092;2023-06-24T13:16:59;96932.66;;;27.49;52.25